createdAt,value
2023-03-05T00:02:20.649Z,16.06
2023-03-05T00:05:22.152Z,16.04
2023-03-05T00:08:23.720Z,16.06
2023-03-05T00:11:29.722Z,16.06
2023-03-05T00:14:31.319Z,16.03
2023-03-05T00:17:32.779Z,16.02
2023-03-05T00:20:35.951Z,16.00
2023-03-05T00:23:37.422Z,15.99
2023-03-05T00:26:39.570Z,15.99
2023-03-05T00:29:41.063Z,15.98
2023-03-05T00:32:43.019Z,15.99
2023-03-05T00:35:46.475Z,16.00
2023-03-05T00:38:48.476Z,16.02
2023-03-05T00:41:50.693Z,16.00
2023-03-05T00:44:52.169Z,16.01
2023-03-05T00:47:53.672Z,16.02
2023-03-05T00:50:55.192Z,16.01
2023-03-05T00:53:56.743Z,16.01
2023-03-05T00:56:58.394Z,16.00
2023-03-05T00:59:59.948Z,16.00
2023-03-05T01:03:01.533Z,16.00
2023-03-05T01:06:09.262Z,16.00
2023-03-05T01:09:10.759Z,15.98
2023-03-05T01:12:12.206Z,15.97
2023-03-05T01:15:13.701Z,15.97
2023-03-05T01:18:15.285Z,15.97
2023-03-05T01:21:16.818Z,15.96
2023-03-05T01:24:18.307Z,15.94
2023-03-05T01:27:19.796Z,15.92
2023-03-05T01:30:21.366Z,15.92
2023-03-05T01:33:22.916Z,15.92
2023-03-05T01:36:25.209Z,15.91
2023-03-05T01:39:26.845Z,15.89
2023-03-05T01:42:28.524Z,15.89
2023-03-05T01:45:32.424Z,15.89
2023-03-05T01:48:34.933Z,15.90
2023-03-05T01:51:43.747Z,15.90
2023-03-05T01:54:49.596Z,15.91
2023-03-05T01:58:01.043Z,15.92
2023-03-05T02:01:02.681Z,15.91
2023-03-05T02:04:05.280Z,15.92
2023-03-05T02:07:07.787Z,15.92
2023-03-05T02:10:20.402Z,15.93
2023-03-05T02:13:25.225Z,15.92
2023-03-05T02:16:35.633Z,15.91
2023-03-05T02:19:51.918Z,15.91
2023-03-05T02:22:53.486Z,15.89
2023-03-05T02:25:55.678Z,15.88
2023-03-05T02:28:59.691Z,15.88
2023-03-05T02:32:01.797Z,15.88
2023-03-05T02:35:03.558Z,15.86
2023-03-05T02:38:05.282Z,15.85
2023-03-05T02:41:07.100Z,15.84
2023-03-05T02:44:09.947Z,15.84
2023-03-05T02:47:11.567Z,15.83
2023-03-05T02:50:13.315Z,15.82
2023-03-05T02:53:15.140Z,15.79
2023-03-05T02:56:16.624Z,15.79
2023-03-05T02:59:18.344Z,15.79
2023-03-05T03:02:20.432Z,15.79
2023-03-05T03:05:22.057Z,15.78
2023-03-05T03:08:23.584Z,15.79
2023-03-05T03:11:25.173Z,15.79
2023-03-05T03:14:26.709Z,15.80
2023-03-05T03:17:28.196Z,15.81
2023-03-05T03:20:29.661Z,15.82
2023-03-05T03:23:32.043Z,15.83
2023-03-05T03:26:33.906Z,15.83
2023-03-05T03:29:35.761Z,15.83
2023-03-05T03:32:37.329Z,15.83
2023-03-05T03:35:38.899Z,15.81
2023-03-05T03:38:40.485Z,15.81
2023-03-05T03:41:44.242Z,15.81
2023-03-05T03:44:45.769Z,15.79
2023-03-05T03:47:48.653Z,15.78
2023-03-05T03:50:50.141Z,15.78
2023-03-05T03:53:51.641Z,15.76
2023-03-05T03:56:53.132Z,15.75
2023-03-05T03:59:54.810Z,15.75
2023-03-05T04:02:56.335Z,15.74
2023-03-05T04:05:57.839Z,15.72
2023-03-05T04:08:59.529Z,15.72
2023-03-05T04:12:01.011Z,15.70
2023-03-05T04:15:02.490Z,15.70
2023-03-05T04:18:04.105Z,15.70
2023-03-05T04:21:05.777Z,15.70
2023-03-05T04:24:08.275Z,15.71
2023-03-05T04:27:10.617Z,15.71
2023-03-05T04:30:14.708Z,15.73
2023-03-05T04:33:16.552Z,15.73
2023-03-05T04:36:18.011Z,15.74
2023-03-05T04:39:20.916Z,15.74
2023-03-05T04:42:22.400Z,15.74
2023-03-05T04:45:24.017Z,15.74
2023-03-05T04:48:25.801Z,15.74
2023-03-05T04:51:27.256Z,15.73
2023-03-05T04:54:28.753Z,15.73
2023-03-05T04:57:30.233Z,15.72
2023-03-05T05:00:31.790Z,15.71
2023-03-05T05:03:33.937Z,15.70
2023-03-05T05:06:35.610Z,15.70
2023-03-05T05:09:38.648Z,15.70
2023-03-05T05:12:40.684Z,15.69
2023-03-05T05:15:42.195Z,15.66
2023-03-05T05:18:43.700Z,15.67
2023-03-05T05:21:45.221Z,15.65
2023-03-05T05:24:46.711Z,15.65
2023-03-05T05:27:48.203Z,15.63
2023-03-05T05:30:49.690Z,15.62
2023-03-05T05:33:51.284Z,15.63
2023-03-05T05:36:53.212Z,15.63
2023-03-05T05:39:54.800Z,15.64
2023-03-05T05:42:56.326Z,15.64
2023-03-05T05:46:02.535Z,15.66
2023-03-05T05:49:04.055Z,15.65
2023-03-05T05:52:05.799Z,15.66
2023-03-05T05:55:07.866Z,15.68
2023-03-05T05:58:09.316Z,15.67
2023-03-05T06:01:20.311Z,15.68
2023-03-05T06:04:21.849Z,15.66
2023-03-05T06:07:23.437Z,15.66
2023-03-05T06:10:25.075Z,15.65
2023-03-05T06:13:26.669Z,15.65
2023-03-05T06:16:28.518Z,15.64
2023-03-05T06:19:30.091Z,15.63
2023-03-05T06:22:31.739Z,15.63
2023-03-05T06:25:33.223Z,15.62
2023-03-05T06:28:35.324Z,15.61
2023-03-05T06:31:37.407Z,15.61
2023-03-05T06:34:38.947Z,15.61
2023-03-05T06:37:40.464Z,15.58
2023-03-05T06:40:42.004Z,15.58
2023-03-05T06:43:45.739Z,15.56
2023-03-05T06:46:47.257Z,15.57
2023-03-05T06:49:48.749Z,15.57
2023-03-05T06:52:53.175Z,15.57
2023-03-05T06:55:54.842Z,15.58
2023-03-05T06:58:56.652Z,15.59
2023-03-05T07:01:58.134Z,15.60
2023-03-05T07:04:59.589Z,15.60
2023-03-05T07:08:01.486Z,15.61
2023-03-05T07:11:03.145Z,15.61
2023-03-05T07:14:04.727Z,15.61
2023-03-05T07:17:07.073Z,15.61
2023-03-05T07:20:09.584Z,15.60
2023-03-05T07:23:11.105Z,15.59
2023-03-05T07:26:12.694Z,15.58
2023-03-05T07:29:14.205Z,15.58
2023-03-05T07:32:15.665Z,15.58
2023-03-05T07:35:17.228Z,15.56
2023-03-05T07:38:18.801Z,15.55
2023-03-05T07:41:21.956Z,15.54
2023-03-05T07:44:23.450Z,15.53
2023-03-05T07:47:25.155Z,15.55
2023-03-05T07:50:26.628Z,15.58
2023-03-05T07:53:28.313Z,15.62
2023-03-05T07:56:35.361Z,15.67
2023-03-05T07:59:38.316Z,15.70
2023-03-05T08:02:39.868Z,15.72
2023-03-05T08:05:42.010Z,15.73
2023-03-05T08:08:43.544Z,15.75
2023-03-05T08:11:45.186Z,15.79
2023-03-05T08:14:47.895Z,15.81
2023-03-05T08:17:49.366Z,15.82
2023-03-05T08:20:50.830Z,15.85
2023-03-05T08:23:52.993Z,15.87
2023-03-05T08:26:54.618Z,15.91
2023-03-05T08:29:56.408Z,15.95
2023-03-05T08:32:57.915Z,15.97
2023-03-05T08:35:59.419Z,15.98
2023-03-05T08:39:01.209Z,16.00
2023-03-05T08:42:03.642Z,16.02
2023-03-05T08:45:05.605Z,16.03
2023-03-05T08:48:07.138Z,16.05
2023-03-05T08:51:12.748Z,16.08
2023-03-05T08:54:14.340Z,16.07
2023-03-05T08:57:16.207Z,16.09
2023-03-05T09:00:18.161Z,16.12
2023-03-05T09:03:19.906Z,16.13
2023-03-05T09:06:21.404Z,16.13
2023-03-05T09:09:23.199Z,16.15
2023-03-05T09:12:24.926Z,16.17
2023-03-05T09:15:26.411Z,16.18
2023-03-05T09:18:28.840Z,16.23
2023-03-05T09:21:30.462Z,16.28
2023-03-05T09:24:32.194Z,16.29
2023-03-05T09:27:35.258Z,16.31
2023-03-05T09:30:36.809Z,16.30
2023-03-05T09:33:39.284Z,16.33
2023-03-05T09:36:40.807Z,16.33
2023-03-05T09:39:42.290Z,16.33
2023-03-05T09:42:49.778Z,16.34
2023-03-05T09:46:04.807Z,16.36
2023-03-05T09:49:16.220Z,16.32
2023-03-05T09:52:30.771Z,16.33
2023-03-05T09:55:36.758Z,16.30
2023-03-05T09:58:56.008Z,16.32
2023-03-05T10:02:05.023Z,16.32
2023-03-05T10:05:18.687Z,16.34
2023-03-05T10:08:24.718Z,16.34
2023-03-05T10:11:44.407Z,16.34
2023-03-05T10:14:45.995Z,16.33
2023-03-05T10:17:50.506Z,16.36
2023-03-05T10:21:03.406Z,16.35
2023-03-05T10:24:43.997Z,16.37
2023-03-05T10:28:09.758Z,16.38
2023-03-05T10:31:21.499Z,16.40
2023-03-05T10:34:40.221Z,16.41
2023-03-05T10:37:56.979Z,16.41
2023-03-05T10:41:08.134Z,16.43
2023-03-05T10:44:21.569Z,16.42
2023-03-05T10:47:25.482Z,16.40
2023-03-05T10:50:33.239Z,16.38
2023-03-05T10:53:54.768Z,16.39
2023-03-05T10:57:21.455Z,16.37
2023-03-05T11:00:26.189Z,16.37
2023-03-05T11:03:46.707Z,16.37
2023-03-05T11:06:48.279Z,16.35
2023-03-05T11:10:19.097Z,16.37
2023-03-05T11:13:28.736Z,16.39
2023-03-05T11:16:32.894Z,16.40
2023-03-05T11:19:34.558Z,16.41
2023-03-05T11:22:36.101Z,16.41
2023-03-05T11:25:56.097Z,16.42
2023-03-05T11:28:59.022Z,16.39
2023-03-05T11:32:22.737Z,16.39
2023-03-05T11:35:32.249Z,16.38
2023-03-05T11:38:45.687Z,16.35
2023-03-05T11:41:53.935Z,16.35
2023-03-05T11:44:55.970Z,16.33
2023-03-05T11:48:05.944Z,16.32
2023-03-05T11:51:22.398Z,16.32
2023-03-05T11:54:39.210Z,16.31
2023-03-05T11:57:48.591Z,16.29
2023-03-05T12:00:50.225Z,16.28
2023-03-05T12:03:52.839Z,16.27
2023-03-05T12:07:00.417Z,16.26
2023-03-05T12:10:02.657Z,16.23
2023-03-05T12:13:15.136Z,16.23
2023-03-05T12:16:43.113Z,16.22
2023-03-05T12:20:06.247Z,16.21
2023-03-05T12:23:19.726Z,16.21
2023-03-05T12:27:02.025Z,16.19
2023-03-05T12:30:05.106Z,16.17
2023-03-05T12:33:32.626Z,16.18
2023-03-05T12:36:35.837Z,16.18
2023-03-05T12:39:40.431Z,16.19
2023-03-05T12:42:47.111Z,15.88
2023-03-05T12:45:51.977Z,15.47
2023-03-05T12:48:53.559Z,15.31
2023-03-05T12:51:59.647Z,15.30
2023-03-05T12:55:15.078Z,15.36
2023-03-05T12:58:28.790Z,15.46
2023-03-05T13:01:45.759Z,15.52
2023-03-05T13:04:47.755Z,15.57
2023-03-05T13:07:51.060Z,15.62
2023-03-05T13:11:03.769Z,15.69
2023-03-05T13:14:27.529Z,15.74
2023-03-05T13:17:33.468Z,15.78
2023-03-05T13:20:36.052Z,15.81
2023-03-05T13:23:37.560Z,15.84
2023-03-05T13:26:41.152Z,15.89
2023-03-05T13:29:52.345Z,15.92
2023-03-05T13:33:00.800Z,15.94
2023-03-05T13:36:03.137Z,15.96
2023-03-05T13:39:06.691Z,15.99
2023-03-05T13:42:41.042Z,16.02
2023-03-05T13:45:44.373Z,16.04
2023-03-05T13:48:45.910Z,16.05
2023-03-05T13:51:59.913Z,16.06
2023-03-05T13:55:03.282Z,16.08
2023-03-05T13:58:04.851Z,16.09
2023-03-05T14:01:15.902Z,16.11
2023-03-05T14:04:25.132Z,16.11
2023-03-05T14:07:39.685Z,16.12
2023-03-05T14:10:42.144Z,16.12
2023-03-05T14:13:44.415Z,16.12
2023-03-05T14:16:46.145Z,16.10
2023-03-05T14:19:47.841Z,16.11
2023-03-05T14:22:51.810Z,16.12
2023-03-05T14:25:53.606Z,16.10
2023-03-05T14:29:17.478Z,16.11
2023-03-05T14:32:32.904Z,16.13
2023-03-05T14:35:35.352Z,16.14
2023-03-05T14:38:41.015Z,16.15
2023-03-05T14:41:42.609Z,16.14
2023-03-05T14:44:44.318Z,16.14
2023-03-05T14:47:46.388Z,16.14
2023-03-05T14:50:56.521Z,16.18
2023-03-05T14:53:58.723Z,16.20
2023-03-05T14:57:00.244Z,16.23
2023-03-05T15:00:01.986Z,16.27
2023-03-05T15:03:03.989Z,16.30
2023-03-05T15:06:05.819Z,16.34
2023-03-05T15:09:08.196Z,16.38
2023-03-05T15:12:12.181Z,16.42
2023-03-05T15:15:14.978Z,16.44
2023-03-05T15:18:18.645Z,16.47
2023-03-05T15:21:20.198Z,16.48
2023-03-05T15:24:21.670Z,16.50
2023-03-05T15:27:23.140Z,16.49
2023-03-05T15:30:26.453Z,16.50
2023-03-05T15:33:28.228Z,16.52
2023-03-05T15:36:30.269Z,16.52
2023-03-05T15:39:32.656Z,16.52
2023-03-05T15:42:34.112Z,16.52
2023-03-05T15:45:35.557Z,16.52
2023-03-05T15:48:37.174Z,16.51
2023-03-05T15:51:38.877Z,16.52
2023-03-05T15:54:41.330Z,16.51
2023-03-05T15:57:45.115Z,16.52
2023-03-05T16:00:47.537Z,16.51
2023-03-05T16:03:52.938Z,16.52
2023-03-05T16:06:55.393Z,16.51
2023-03-05T16:09:57.730Z,16.50
2023-03-05T16:13:07.725Z,16.51
2023-03-05T16:16:09.659Z,16.50
2023-03-05T16:19:13.919Z,16.52
2023-03-05T16:22:15.574Z,16.51
2023-03-05T16:25:17.639Z,16.53
2023-03-05T16:28:19.291Z,16.56
2023-03-05T16:31:20.966Z,16.56
2023-03-05T16:34:22.534Z,16.56
2023-03-05T16:37:24.535Z,16.58
2023-03-05T16:40:34.287Z,16.59
2023-03-05T16:43:47.081Z,16.58
2023-03-05T16:46:53.081Z,16.61
2023-03-05T16:49:54.606Z,16.62
2023-03-05T16:52:56.108Z,16.63
2023-03-05T16:55:57.589Z,16.61
2023-03-05T16:58:59.551Z,16.63
2023-03-05T17:02:01.036Z,16.64
2023-03-05T17:05:03.776Z,16.64
2023-03-05T17:08:05.671Z,16.64
2023-03-05T17:11:07.412Z,16.64
2023-03-05T17:14:08.844Z,16.63
2023-03-05T17:17:10.726Z,16.64
2023-03-05T17:20:13.169Z,16.66
2023-03-05T17:23:14.745Z,16.67
2023-03-05T17:26:18.906Z,16.69
2023-03-05T17:29:21.379Z,16.70
2023-03-05T17:32:22.987Z,16.71
2023-03-05T17:35:24.740Z,16.74
2023-03-05T17:38:27.107Z,16.77
2023-03-05T17:41:28.668Z,16.78
2023-03-05T17:44:30.345Z,16.80
2023-03-05T17:47:33.054Z,16.83
2023-03-05T17:50:34.976Z,16.72
2023-03-05T17:53:38.750Z,16.60
2023-03-05T17:56:40.291Z,16.43
2023-03-05T17:59:43.212Z,16.30
2023-03-05T18:02:46.187Z,16.26
2023-03-05T18:05:47.688Z,15.98
2023-03-05T18:08:49.750Z,15.76
2023-03-05T18:11:51.215Z,15.76
2023-03-05T18:14:52.778Z,15.85
2023-03-05T18:17:54.665Z,15.97
2023-03-05T18:20:56.333Z,16.06
2023-03-05T18:23:57.819Z,16.15
2023-03-05T18:26:59.345Z,16.22
2023-03-05T18:30:00.814Z,16.29
2023-03-05T18:33:02.785Z,16.35
2023-03-05T18:36:04.744Z,16.38
2023-03-05T18:39:06.312Z,16.41
2023-03-05T18:42:12.414Z,16.47
2023-03-05T18:45:17.088Z,16.50
2023-03-05T18:48:19.002Z,16.53
2023-03-05T18:51:21.785Z,16.58
2023-03-05T18:54:23.267Z,16.59
2023-03-05T18:57:24.806Z,16.62
2023-03-05T19:00:29.674Z,16.63
2023-03-05T19:03:31.134Z,16.64
2023-03-05T19:06:34.659Z,16.64
2023-03-05T19:10:02.315Z,16.65
2023-03-05T19:13:30.105Z,16.65
2023-03-05T19:16:38.211Z,16.61
2023-03-05T19:19:42.667Z,16.50
2023-03-05T19:22:44.469Z,16.40
2023-03-05T19:25:45.940Z,16.37
2023-03-05T19:28:47.410Z,16.35
2023-03-05T19:31:49.108Z,16.37
2023-03-05T19:34:54.666Z,16.39
2023-03-05T19:37:56.252Z,16.41
2023-03-05T19:40:57.735Z,16.42
2023-03-05T19:43:59.326Z,16.45
2023-03-05T19:47:00.919Z,16.45
2023-03-05T19:50:02.600Z,16.48
2023-03-05T19:53:06.936Z,16.49
2023-03-05T19:56:10.184Z,16.51
2023-03-05T19:59:12.075Z,16.51
2023-03-05T20:02:13.621Z,16.50
2023-03-05T20:05:15.103Z,16.53
2023-03-05T20:08:16.656Z,16.54
2023-03-05T20:11:19.594Z,16.55
2023-03-05T20:14:21.185Z,16.55
2023-03-05T20:17:22.654Z,16.55
2023-03-05T20:20:24.840Z,16.57
2023-03-05T20:23:26.390Z,16.57
2023-03-05T20:26:28.698Z,16.58
2023-03-05T20:29:30.153Z,16.59
2023-03-05T20:32:31.719Z,16.60
2023-03-05T20:35:33.280Z,16.59
2023-03-05T20:38:34.779Z,16.61
2023-03-05T20:41:38.318Z,16.62
2023-03-05T20:44:39.812Z,16.62
2023-03-05T20:47:45.954Z,16.62
2023-03-05T20:50:47.488Z,16.61
2023-03-05T20:53:50.848Z,16.63
2023-03-05T20:56:52.303Z,16.63
2023-03-05T20:59:53.774Z,16.64
2023-03-05T21:02:56.229Z,16.66
2023-03-05T21:05:57.775Z,16.67
2023-03-05T21:08:59.975Z,16.68
2023-03-05T21:12:01.513Z,16.68
2023-03-05T21:15:03.266Z,16.70
2023-03-05T21:18:04.826Z,16.72
2023-03-05T21:21:06.975Z,16.73
2023-03-05T21:24:08.517Z,16.72
2023-03-05T21:27:10.009Z,16.72
2023-03-05T21:30:12.229Z,16.73
2023-03-05T21:33:20.632Z,16.76
2023-03-05T21:36:22.089Z,16.74
2023-03-05T21:39:23.565Z,16.74
2023-03-05T21:42:25.242Z,16.72
2023-03-05T21:45:28.532Z,16.73
2023-03-05T21:48:31.108Z,16.72
2023-03-05T21:51:38.826Z,16.73
2023-03-05T21:54:41.993Z,16.73
2023-03-05T21:57:44.155Z,16.71
2023-03-05T22:00:45.695Z,16.70
2023-03-05T22:03:48.412Z,16.71
2023-03-05T22:06:49.983Z,16.68
2023-03-05T22:09:55.473Z,16.70
2023-03-05T22:13:07.202Z,16.67
2023-03-05T22:16:09.189Z,16.66
2023-03-05T22:19:10.849Z,16.66
2023-03-05T22:22:12.358Z,16.65
2023-03-05T22:25:14.937Z,16.64
2023-03-05T22:28:16.457Z,16.64
2023-03-05T22:31:26.298Z,16.63
2023-03-05T22:34:28.896Z,16.61
2023-03-05T22:37:31.068Z,16.58
2023-03-05T22:40:32.555Z,16.58
2023-03-05T22:43:34.193Z,16.58
2023-03-05T22:46:35.710Z,16.56
2023-03-05T22:49:37.158Z,16.56
2023-03-05T22:52:38.870Z,16.55
2023-03-05T22:55:41.316Z,16.54
2023-03-05T22:58:42.869Z,16.54
2023-03-05T23:01:44.335Z,16.52
2023-03-05T23:04:50.163Z,16.53
2023-03-05T23:07:51.657Z,16.50
2023-03-05T23:10:53.101Z,16.49
2023-03-05T23:13:54.660Z,16.49
2023-03-05T23:16:56.116Z,16.47
2023-03-05T23:19:57.644Z,16.47
2023-03-05T23:22:59.446Z,16.46
2023-03-05T23:26:01.512Z,16.46
2023-03-05T23:29:03.011Z,16.45
2023-03-05T23:32:04.867Z,16.43
2023-03-05T23:35:06.762Z,16.42
2023-03-05T23:38:12.489Z,16.43
2023-03-05T23:41:13.971Z,16.40
2023-03-05T23:44:15.637Z,16.39
2023-03-05T23:47:19.829Z,16.40
2023-03-05T23:50:24.392Z,16.38
2023-03-05T23:53:28.869Z,16.39
2023-03-05T23:56:31.479Z,16.37
2023-03-05T23:59:32.950Z,16.36
